sensor_id;sensor_type;location;lat;lon;timestamp;pressure;altitude;pressure_sealevel;temperature;humidity
72909;BME280;61051;62.624;17.950;2023-05-08T00:00:04;102657.63;;;0.25;79.97
72909;BME280;61051;62.624;17.950;2023-05-08T00:02:33;102661.93;;;0.26;77.77
72909;BME280;61051;62.624;17.950;2023-05-08T00:05:02;102660.94;;;0.16;77.33
72909;BME280;61051;62.624;17.950;2023-05-08T00:07:31;102665.09;;;-0.11;78.95
72909;BME280;61051;62.624;17.950;2023-05-08T00:09:59;102666.84;;;-0.21;80.56
72909;BME280;61051;62.624;17.950;2023-05-08T00:12:29;102664.90;;;-0.29;80.70
72909;BME280;61051;62.624;17.950;2023-05-08T00:14:57;102664.34;;;-0.39;80.69
72909;BME280;61051;62.624;17.950;2023-05-08T00:17:26;102662.43;;;-0.41;80.35
72909;BME280;61051;62.624;17.950;2023-05-08T00:26:35;102670.96;;;-0.52;79.96
72909;BME280;61051;62.624;17.950;2023-05-08T00:29:03;102670.61;;;-0.55;81.00
72909;BME280;61051;62.624;17.950;2023-05-08T00:31:32;102671.54;;;-0.74;80.83
72909;BME280;61051;62.624;17.950;2023-05-08T00:34:00;102671.18;;;-0.63;80.74
72909;BME280;61051;62.624;17.950;2023-05-08T00:36:29;102669.47;;;-0.57;80.44
72909;BME280;61051;62.624;17.950;2023-05-08T00:38:58;102669.67;;;-0.57;79.68
72909;BME280;61051;62.624;17.950;2023-05-08T00:41:27;102674.44;;;-0.52;80.61
72909;BME280;61051;62.624;17.950;2023-05-08T00:43:56;102673.44;;;-0.58;80.39
72909;BME280;61051;62.624;17.950;2023-05-08T00:46:25;102674.31;;;-0.82;81.76
72909;BME280;61051;62.624;17.950;2023-05-08T00:48:54;102676.82;;;-0.70;82.89
72909;BME280;61051;62.624;17.950;2023-05-08T00:51:24;102678.39;;;-0.65;82.61
72909;BME280;61051;62.624;17.950;2023-05-08T00:53:53;102678.62;;;-0.91;82.54
72909;BME280;61051;62.624;17.950;2023-05-08T00:56:23;102681.86;;;-0.77;82.87
72909;BME280;61051;62.624;17.950;2023-05-08T00:58:54;102682.27;;;-0.51;82.83
72909;BME280;61051;62.624;17.950;2023-05-08T01:01:23;102683.67;;;-0.25;81.84
72909;BME280;61051;62.624;17.950;2023-05-08T01:03:53;102688.31;;;-0.08;78.92
72909;BME280;61051;62.624;17.950;2023-05-08T01:06:22;102688.74;;;-0.36;78.50
72909;BME280;61051;62.624;17.950;2023-05-08T01:08:51;102689.96;;;-0.64;79.62
72909;BME280;61051;62.624;17.950;2023-05-08T01:11:24;102690.28;;;-0.57;80.43
72909;BME280;61051;62.624;17.950;2023-05-08T01:14:06;102691.74;;;-0.62;80.88
72909;BME280;61051;62.624;17.950;2023-05-08T01:16:43;102689.58;;;-0.87;81.32
72909;BME280;61051;62.624;17.950;2023-05-08T01:19:51;102689.09;;;-0.94;81.54
72909;BME280;61051;62.624;17.950;2023-05-08T01:22:41;102688.21;;;-0.88;80.68
72909;BME280;61051;62.624;17.950;2023-05-08T01:25:37;102687.29;;;-0.92;80.33
72909;BME280;61051;62.624;17.950;2023-05-08T01:28:27;102688.03;;;-0.97;82.65
72909;BME280;61051;62.624;17.950;2023-05-08T01:31:09;102688.27;;;-0.96;82.23
72909;BME280;61051;62.624;17.950;2023-05-08T01:33:45;102685.54;;;-1.01;81.81
72909;BME280;61051;62.624;17.950;2023-05-08T01:36:22;102689.73;;;-0.93;82.05
72909;BME280;61051;62.624;17.950;2023-05-08T01:38:59;102692.29;;;-0.92;81.67
72909;BME280;61051;62.624;17.950;2023-05-08T01:41:33;102695.05;;;-1.14;82.39
72909;BME280;61051;62.624;17.950;2023-05-08T01:44:11;102694.17;;;-1.10;82.36
72909;BME280;61051;62.624;17.950;2023-05-08T01:46:41;102698.61;;;-1.27;82.01
72909;BME280;61051;62.624;17.950;2023-05-08T01:49:21;102700.41;;;-1.09;81.92
72909;BME280;61051;62.624;17.950;2023-05-08T01:51:56;102700.44;;;-0.97;82.14
72909;BME280;61051;62.624;17.950;2023-05-08T01:54:28;102702.69;;;-0.93;81.26
72909;BME280;61051;62.624;17.950;2023-05-08T01:56:58;102701.69;;;-0.98;81.19
72909;BME280;61051;62.624;17.950;2023-05-08T01:59:29;102699.34;;;-1.03;81.57
72909;BME280;61051;62.624;17.950;2023-05-08T02:02:01;102700.54;;;-1.15;82.11
72909;BME280;61051;62.624;17.950;2023-05-08T02:04:32;102703.89;;;-1.22;82.46
72909;BME280;61051;62.624;17.950;2023-05-08T02:07:01;102705.94;;;-1.14;82.71
72909;BME280;61051;62.624;17.950;2023-05-08T02:09:30;102705.50;;;-1.26;82.74
72909;BME280;61051;62.624;17.950;2023-05-08T02:12:01;102707.54;;;-1.28;82.58
72909;BME280;61051;62.624;17.950;2023-05-08T02:14:32;102707.76;;;-1.39;81.83
72909;BME280;61051;62.624;17.950;2023-05-08T02:17:02;102704.79;;;-1.36;83.04
72909;BME280;61051;62.624;17.950;2023-05-08T02:19:33;102704.97;;;-1.28;83.35
72909;BME280;61051;62.624;17.950;2023-05-08T02:22:03;102705.48;;;-1.13;82.78
72909;BME280;61051;62.624;17.950;2023-05-08T02:24:34;102707.97;;;-1.26;81.41
72909;BME280;61051;62.624;17.950;2023-05-08T02:27:04;102710.75;;;-1.27;81.57
72909;BME280;61051;62.624;17.950;2023-05-08T02:29:35;102715.57;;;-1.19;81.17
72909;BME280;61051;62.624;17.950;2023-05-08T02:32:05;102714.39;;;-1.40;82.23
72909;BME280;61051;62.624;17.950;2023-05-08T02:34:35;102711.14;;;-1.46;82.66
72909;BME280;61051;62.624;17.950;2023-05-08T02:37:04;102711.92;;;-1.41;82.19
72909;BME280;61051;62.624;17.950;2023-05-08T02:39:34;102712.34;;;-1.37;82.71
72909;BME280;61051;62.624;17.950;2023-05-08T02:42:04;102712.72;;;-1.39;82.45
72909;BME280;61051;62.624;17.950;2023-05-08T02:44:33;102711.38;;;-1.29;82.48
72909;BME280;61051;62.624;17.950;2023-05-08T02:47:19;102708.57;;;-1.28;83.52
72909;BME280;61051;62.624;17.950;2023-05-08T02:49:51;102707.30;;;-1.23;83.44
72909;BME280;61051;62.624;17.950;2023-05-08T02:52:26;102704.48;;;-1.21;82.86
72909;BME280;61051;62.624;17.950;2023-05-08T02:54:59;102703.87;;;-1.25;83.09
72909;BME280;61051;62.624;17.950;2023-05-08T02:57:34;102702.94;;;-1.13;83.83
72909;BME280;61051;62.624;17.950;2023-05-08T03:00:11;102701.08;;;-1.21;83.59
72909;BME280;61051;62.624;17.950;2023-05-08T03:02:48;102701.90;;;-1.06;83.75
72909;BME280;61051;62.624;17.950;2023-05-08T03:05:19;102701.32;;;-1.20;82.93
72909;BME280;61051;62.624;17.950;2023-05-08T03:07:51;102701.85;;;-1.08;82.21
72909;BME280;61051;62.624;17.950;2023-05-08T03:10:27;102701.99;;;-0.99;82.00
72909;BME280;61051;62.624;17.950;2023-05-08T03:12:58;102700.93;;;-0.84;81.87
72909;BME280;61051;62.624;17.950;2023-05-08T03:15:33;102705.52;;;-0.95;81.77
72909;BME280;61051;62.624;17.950;2023-05-08T03:18:07;102704.92;;;-0.90;82.14
72909;BME280;61051;62.624;17.950;2023-05-08T03:20:40;102707.16;;;-0.97;82.03
72909;BME280;61051;62.624;17.950;2023-05-08T03:23:12;102707.83;;;-0.78;81.73
72909;BME280;61051;62.624;17.950;2023-05-08T03:25:42;102707.92;;;-0.65;80.83
72909;BME280;61051;62.624;17.950;2023-05-08T03:28:12;102707.99;;;-0.59;80.49
72909;BME280;61051;62.624;17.950;2023-05-08T03:30:41;102708.70;;;-0.47;81.15
72909;BME280;61051;62.624;17.950;2023-05-08T03:33:11;102709.60;;;-0.22;80.32
72909;BME280;61051;62.624;17.950;2023-05-08T03:35:41;102710.19;;;-0.33;79.22
72909;BME280;61051;62.624;17.950;2023-05-08T03:38:10;102707.19;;;-0.17;78.92
72909;BME280;61051;62.624;17.950;2023-05-08T03:40:41;102704.57;;;-0.02;78.01
72909;BME280;61051;62.624;17.950;2023-05-08T03:43:11;102702.08;;;-0.08;77.17
72909;BME280;61051;62.624;17.950;2023-05-08T03:45:40;102699.81;;;0.07;77.86
72909;BME280;61051;62.624;17.950;2023-05-08T03:48:08;102700.08;;;0.17;77.75
72909;BME280;61051;62.624;17.950;2023-05-08T03:50:38;102699.39;;;0.26;77.04
72909;BME280;61051;62.624;17.950;2023-05-08T03:53:06;102698.46;;;0.20;78.04
72909;BME280;61051;62.624;17.950;2023-05-08T03:55:35;102695.38;;;0.30;78.81
72909;BME280;61051;62.624;17.950;2023-05-08T03:58:09;102694.78;;;0.34;78.48
72909;BME280;61051;62.624;17.950;2023-05-08T04:03:22;102699.21;;;0.31;77.99
72909;BME280;61051;62.624;17.950;2023-05-08T04:06:02;102699.81;;;0.56;77.41
72909;BME280;61051;62.624;17.950;2023-05-08T04:08:40;102697.23;;;0.67;76.74
72909;BME280;61051;62.624;17.950;2023-05-08T04:11:17;102695.58;;;0.76;77.08
72909;BME280;61051;62.624;17.950;2023-05-08T04:13:48;102692.19;;;0.86;75.47
72909;BME280;61051;62.624;17.950;2023-05-08T04:16:21;102692.52;;;1.02;75.29
72909;BME280;61051;62.624;17.950;2023-05-08T04:18:55;102692.19;;;1.17;75.33
72909;BME280;61051;62.624;17.950;2023-05-08T04:21:25;102691.75;;;1.29;75.67
72909;BME280;61051;62.624;17.950;2023-05-08T04:23:56;102692.84;;;1.44;75.92
72909;BME280;61051;62.624;17.950;2023-05-08T04:26:27;102690.57;;;1.47;74.86
72909;BME280;61051;62.624;17.950;2023-05-08T04:28:56;102692.99;;;1.72;74.66
72909;BME280;61051;62.624;17.950;2023-05-08T04:31:25;102694.64;;;1.89;73.29
72909;BME280;61051;62.624;17.950;2023-05-08T04:33:55;102695.30;;;1.94;73.54
72909;BME280;61051;62.624;17.950;2023-05-08T04:36:24;102693.72;;;1.97;73.13
72909;BME280;61051;62.624;17.950;2023-05-08T04:38:53;102696.50;;;2.12;71.32
72909;BME280;61051;62.624;17.950;2023-05-08T04:41:22;102696.27;;;2.14;70.39
72909;BME280;61051;62.624;17.950;2023-05-08T04:43:52;102696.36;;;2.21;69.55
72909;BME280;61051;62.624;17.950;2023-05-08T04:46:21;102694.00;;;2.33;69.64
72909;BME280;61051;62.624;17.950;2023-05-08T04:48:50;102690.37;;;2.54;68.25
72909;BME280;61051;62.624;17.950;2023-05-08T04:51:20;102693.52;;;2.72;66.79
72909;BME280;61051;62.624;17.950;2023-05-08T04:53:48;102695.61;;;3.06;66.67
72909;BME280;61051;62.624;17.950;2023-05-08T04:56:17;102695.32;;;3.05;66.30
72909;BME280;61051;62.624;17.950;2023-05-08T04:58:45;102696.82;;;3.33;66.60
72909;BME280;61051;62.624;17.950;2023-05-08T05:01:14;102700.18;;;3.25;66.84
72909;BME280;61051;62.624;17.950;2023-05-08T05:03:42;102701.85;;;3.50;66.34
72909;BME280;61051;62.624;17.950;2023-05-08T05:06:11;102701.74;;;3.67;65.46
72909;BME280;61051;62.624;17.950;2023-05-08T05:08:40;102703.34;;;3.74;65.17
72909;BME280;61051;62.624;17.950;2023-05-08T05:11:09;102705.07;;;3.85;64.87
72909;BME280;61051;62.624;17.950;2023-05-08T05:13:38;102702.55;;;3.88;63.57
72909;BME280;61051;62.624;17.950;2023-05-08T05:16:06;102700.24;;;3.97;60.44
72909;BME280;61051;62.624;17.950;2023-05-08T05:18:35;102700.64;;;4.03;59.84
72909;BME280;61051;62.624;17.950;2023-05-08T05:21:03;102702.30;;;4.22;58.52
72909;BME280;61051;62.624;17.950;2023-05-08T05:23:32;102703.03;;;4.46;58.36
72909;BME280;61051;62.624;17.950;2023-05-08T05:26:01;102701.92;;;4.56;56.98
72909;BME280;61051;62.624;17.950;2023-05-08T05:28:31;102704.72;;;4.66;57.56
72909;BME280;61051;62.624;17.950;2023-05-08T05:30:59;102705.90;;;4.85;54.85
72909;BME280;61051;62.624;17.950;2023-05-08T05:33:27;102705.53;;;5.10;52.76
72909;BME280;61051;62.624;17.950;2023-05-08T05:35:56;102700.14;;;5.11;51.85
72909;BME280;61051;62.624;17.950;2023-05-08T05:38:25;102701.44;;;5.31;50.83
72909;BME280;61051;62.624;17.950;2023-05-08T05:40:53;102706.63;;;5.40;56.14
72909;BME280;61051;62.624;17.950;2023-05-08T05:43:22;102704.94;;;5.58;52.99
72909;BME280;61051;62.624;17.950;2023-05-08T05:45:52;102706.50;;;5.76;53.24
72909;BME280;61051;62.624;17.950;2023-05-08T05:48:21;102709.61;;;5.98;52.37
72909;BME280;61051;62.624;17.950;2023-05-08T05:50:51;102708.00;;;6.12;51.93
72909;BME280;61051;62.624;17.950;2023-05-08T05:53:20;102709.31;;;6.02;51.49
72909;BME280;61051;62.624;17.950;2023-05-08T05:55:48;102708.32;;;6.19;52.59
72909;BME280;61051;62.624;17.950;2023-05-08T05:58:17;102709.28;;;6.17;52.52
72909;BME280;61051;62.624;17.950;2023-05-08T06:00:46;102710.20;;;6.32;51.65
72909;BME280;61051;62.624;17.950;2023-05-08T06:03:16;102710.74;;;6.61;51.95
72909;BME280;61051;62.624;17.950;2023-05-08T06:05:45;102713.52;;;6.69;51.97
72909;BME280;61051;62.624;17.950;2023-05-08T06:08:14;102705.59;;;6.84;49.34
72909;BME280;61051;62.624;17.950;2023-05-08T06:10:42;102703.46;;;6.99;49.04
72909;BME280;61051;62.624;17.950;2023-05-08T06:13:10;102703.86;;;7.24;46.69
72909;BME280;61051;62.624;17.950;2023-05-08T06:15:39;102700.08;;;7.41;45.50
72909;BME280;61051;62.624;17.950;2023-05-08T06:18:07;102702.11;;;7.49;45.28
72909;BME280;61051;62.624;17.950;2023-05-08T06:20:36;102701.51;;;7.74;44.48
72909;BME280;61051;62.624;17.950;2023-05-08T06:23:05;102702.74;;;7.70;42.59
72909;BME280;61051;62.624;17.950;2023-05-08T06:25:34;102705.78;;;7.57;42.86
72909;BME280;61051;62.624;17.950;2023-05-08T06:28:02;102703.92;;;7.82;43.16
72909;BME280;61051;62.624;17.950;2023-05-08T06:30:32;102704.84;;;8.06;43.56
72909;BME280;61051;62.624;17.950;2023-05-08T06:33:00;102702.06;;;8.27;42.75
72909;BME280;61051;62.624;17.950;2023-05-08T06:35:28;102703.24;;;8.38;40.68
72909;BME280;61051;62.624;17.950;2023-05-08T06:37:57;102703.04;;;8.53;40.19
72909;BME280;61051;62.624;17.950;2023-05-08T06:40:25;102700.51;;;8.66;41.22
72909;BME280;61051;62.624;17.950;2023-05-08T06:42:54;102696.86;;;8.81;39.28
72909;BME280;61051;62.624;17.950;2023-05-08T06:45:23;102694.16;;;8.73;39.50
72909;BME280;61051;62.624;17.950;2023-05-08T06:47:52;102690.04;;;8.83;38.52
72909;BME280;61051;62.624;17.950;2023-05-08T06:50:21;102691.13;;;9.04;38.63
72909;BME280;61051;62.624;17.950;2023-05-08T06:52:51;102688.26;;;9.24;38.07
72909;BME280;61051;62.624;17.950;2023-05-08T06:55:20;102684.40;;;9.36;39.25
72909;BME280;61051;62.624;17.950;2023-05-08T06:57:48;102688.27;;;9.56;38.26
72909;BME280;61051;62.624;17.950;2023-05-08T07:00:18;102691.15;;;9.65;38.07
72909;BME280;61051;62.624;17.950;2023-05-08T07:02:45;102693.05;;;9.82;37.02
72909;BME280;61051;62.624;17.950;2023-05-08T07:05:14;102694.52;;;10.12;37.32
72909;BME280;61051;62.624;17.950;2023-05-08T07:07:42;102695.02;;;10.04;37.47
72909;BME280;61051;62.624;17.950;2023-05-08T07:10:10;102688.80;;;10.05;36.03
72909;BME280;61051;62.624;17.950;2023-05-08T07:12:39;102688.20;;;10.37;36.10
72909;BME280;61051;62.624;17.950;2023-05-08T07:15:08;102684.44;;;10.31;36.41
72909;BME280;61051;62.624;17.950;2023-05-08T07:17:37;102680.89;;;10.51;35.31
72909;BME280;61051;62.624;17.950;2023-05-08T07:20:07;102674.31;;;10.61;35.39
72909;BME280;61051;62.624;17.950;2023-05-08T07:22:35;102668.97;;;10.83;35.96
72909;BME280;61051;62.624;17.950;2023-05-08T07:25:04;102666.84;;;11.09;35.20
72909;BME280;61051;62.624;17.950;2023-05-08T07:27:33;102663.72;;;11.25;33.79
72909;BME280;61051;62.624;17.950;2023-05-08T07:30:01;102658.89;;;11.44;34.19
72909;BME280;61051;62.624;17.950;2023-05-08T07:32:30;102656.61;;;11.58;32.78
72909;BME280;61051;62.624;17.950;2023-05-08T07:34:58;102654.48;;;11.67;31.65
72909;BME280;61051;62.624;17.950;2023-05-08T07:37:27;102652.87;;;11.82;32.54
72909;BME280;61051;62.624;17.950;2023-05-08T07:39:55;102648.80;;;12.00;32.34
72909;BME280;61051;62.624;17.950;2023-05-08T07:42:23;102648.42;;;12.21;32.42
72909;BME280;61051;62.624;17.950;2023-05-08T07:44:52;102647.92;;;12.31;32.26
72909;BME280;61051;62.624;17.950;2023-05-08T07:47:21;102647.83;;;12.53;32.49
72909;BME280;61051;62.624;17.950;2023-05-08T07:49:50;102645.67;;;13.20;31.30
72909;BME280;61051;62.624;17.950;2023-05-08T07:52:19;102643.48;;;13.25;31.77
72909;BME280;61051;62.624;17.950;2023-05-08T07:54:47;102649.02;;;13.14;31.63
72909;BME280;61051;62.624;17.950;2023-05-08T07:57:15;102646.10;;;13.13;29.70
72909;BME280;61051;62.624;17.950;2023-05-08T07:59:44;102645.67;;;13.01;29.75
72909;BME280;61051;62.624;17.950;2023-05-08T08:02:12;102643.53;;;13.02;29.30
72909;BME280;61051;62.624;17.950;2023-05-08T08:04:40;102640.25;;;12.98;29.48
72909;BME280;61051;62.624;17.950;2023-05-08T08:07:08;102645.46;;;12.90;29.79
72909;BME280;61051;62.624;17.950;2023-05-08T08:09:36;102643.94;;;13.02;29.87
72909;BME280;61051;62.624;17.950;2023-05-08T08:12:05;102647.83;;;13.06;29.67
72909;BME280;61051;62.624;17.950;2023-05-08T08:14:33;102646.66;;;13.00;30.00
72909;BME280;61051;62.624;17.950;2023-05-08T08:17:01;102642.83;;;13.00;30.42
72909;BME280;61051;62.624;17.950;2023-05-08T08:19:29;102637.85;;;13.17;30.36
72909;BME280;61051;62.624;17.950;2023-05-08T08:21:57;102635.89;;;13.56;31.12
72909;BME280;61051;62.624;17.950;2023-05-08T08:24:26;102637.22;;;14.10;31.09
72909;BME280;61051;62.624;17.950;2023-05-08T08:26:54;102637.39;;;14.37;30.13
72909;BME280;61051;62.624;17.950;2023-05-08T08:29:22;102636.55;;;14.58;29.74
72909;BME280;61051;62.624;17.950;2023-05-08T08:31:51;102630.98;;;14.81;29.02
72909;BME280;61051;62.624;17.950;2023-05-08T08:34:20;102628.98;;;15.07;27.71
72909;BME280;61051;62.624;17.950;2023-05-08T08:36:48;102628.54;;;15.17;25.43
72909;BME280;61051;62.624;17.950;2023-05-08T08:39:17;102630.16;;;15.31;25.91
72909;BME280;61051;62.624;17.950;2023-05-08T08:41:45;102630.63;;;15.47;24.88
72909;BME280;61051;62.624;17.950;2023-05-08T08:44:13;102630.62;;;15.74;23.59
72909;BME280;61051;62.624;17.950;2023-05-08T08:46:47;102627.80;;;15.90;22.99
72909;BME280;61051;62.624;17.950;2023-05-08T08:49:23;102631.66;;;15.74;24.98
72909;BME280;61051;62.624;17.950;2023-05-08T08:51:57;102632.00;;;15.88;23.16
72909;BME280;61051;62.624;17.950;2023-05-08T08:54:28;102630.58;;;16.23;22.41
72909;BME280;61051;62.624;17.950;2023-05-08T08:57:00;102628.66;;;16.35;23.54
72909;BME280;61051;62.624;17.950;2023-05-08T08:59:28;102629.97;;;16.47;23.41
72909;BME280;61051;62.624;17.950;2023-05-08T09:02:04;102624.83;;;16.68;22.12
72909;BME280;61051;62.624;17.950;2023-05-08T09:04:33;102614.60;;;16.78;23.83
72909;BME280;61051;62.624;17.950;2023-05-08T09:07:02;102615.94;;;16.87;22.02
72909;BME280;61051;62.624;17.950;2023-05-08T09:09:31;102612.61;;;16.76;21.37
72909;BME280;61051;62.624;17.950;2023-05-08T09:12:01;102611.66;;;16.66;22.38
72909;BME280;61051;62.624;17.950;2023-05-08T09:14:29;102607.27;;;16.72;21.88
72909;BME280;61051;62.624;17.950;2023-05-08T09:16:57;102606.99;;;16.89;21.97
72909;BME280;61051;62.624;17.950;2023-05-08T09:19:27;102607.53;;;17.06;21.42
72909;BME280;61051;62.624;17.950;2023-05-08T09:21:58;102600.98;;;17.33;22.99
72909;BME280;61051;62.624;17.950;2023-05-08T09:24:53;102599.98;;;17.39;21.44
72909;BME280;61051;62.624;17.950;2023-05-08T09:27:23;102599.30;;;17.27;21.28
72909;BME280;61051;62.624;17.950;2023-05-08T09:30:00;102596.52;;;17.62;21.88
72909;BME280;61051;62.624;17.950;2023-05-08T09:32:29;102597.53;;;17.64;20.90
72909;BME280;61051;62.624;17.950;2023-05-08T09:34:58;102595.61;;;17.94;20.54
72909;BME280;61051;62.624;17.950;2023-05-08T09:37:27;102594.81;;;18.30;19.93
72909;BME280;61051;62.624;17.950;2023-05-08T09:40:13;102588.83;;;18.26;20.28
72909;BME280;61051;62.624;17.950;2023-05-08T09:42:48;102583.33;;;18.37;21.73
72909;BME280;61051;62.624;17.950;2023-05-08T09:45:27;102587.09;;;18.49;19.97
72909;BME280;61051;62.624;17.950;2023-05-08T09:47:57;102582.30;;;18.77;20.36
72909;BME280;61051;62.624;17.950;2023-05-08T09:50:27;102581.14;;;19.00;20.24
72909;BME280;61051;62.624;17.950;2023-05-08T09:52:55;102577.67;;;18.90;19.62
72909;BME280;61051;62.624;17.950;2023-05-08T09:55:23;102574.78;;;18.92;20.81
72909;BME280;61051;62.624;17.950;2023-05-08T09:57:54;102574.53;;;19.01;20.07
72909;BME280;61051;62.624;17.950;2023-05-08T10:04:15;102572.83;;;18.78;18.95
72909;BME280;61051;62.624;17.950;2023-05-08T10:06:55;102567.24;;;18.98;19.74
72909;BME280;61051;62.624;17.950;2023-05-08T10:09:25;102564.60;;;19.01;19.10
72909;BME280;61051;62.624;17.950;2023-05-08T10:11:53;102559.48;;;18.87;19.08
72909;BME280;61051;62.624;17.950;2023-05-08T10:14:24;102559.30;;;18.88;19.64
72909;BME280;61051;62.624;17.950;2023-05-08T10:16:53;102561.56;;;19.07;19.33
72909;BME280;61051;62.624;17.950;2023-05-08T10:19:24;102557.75;;;19.16;19.65
72909;BME280;61051;62.624;17.950;2023-05-08T10:21:54;102553.82;;;19.09;19.10
72909;BME280;61051;62.624;17.950;2023-05-08T10:24:26;102552.42;;;19.08;19.38
72909;BME280;61051;62.624;17.950;2023-05-08T10:27:00;102546.04;;;19.12;20.45
72909;BME280;61051;62.624;17.950;2023-05-08T10:29:33;102548.30;;;19.21;19.67
72909;BME280;61051;62.624;17.950;2023-05-08T10:32:09;102545.12;;;19.33;19.31
72909;BME280;61051;62.624;17.950;2023-05-08T10:34:40;102542.39;;;19.40;19.83
72909;BME280;61051;62.624;17.950;2023-05-08T10:37:09;102540.81;;;19.29;18.91
72909;BME280;61051;62.624;17.950;2023-05-08T10:39:39;102536.06;;;19.53;20.04
72909;BME280;61051;62.624;17.950;2023-05-08T10:42:09;102535.58;;;19.88;18.86
72909;BME280;61051;62.624;17.950;2023-05-08T10:44:39;102528.97;;;19.91;19.04
72909;BME280;61051;62.624;17.950;2023-05-08T10:47:15;102528.31;;;19.96;19.60
72909;BME280;61051;62.624;17.950;2023-05-08T10:49:54;102522.06;;;19.84;18.52
72909;BME280;61051;62.624;17.950;2023-05-08T10:52:33;102524.01;;;20.05;18.49
72909;BME280;61051;62.624;17.950;2023-05-08T10:55:15;102518.87;;;20.04;19.05
72909;BME280;61051;62.624;17.950;2023-05-08T10:58:28;102522.15;;;20.37;18.32
72909;BME280;61051;62.624;17.950;2023-05-08T11:01:15;102510.55;;;21.27;19.11
72909;BME280;61051;62.624;17.950;2023-05-08T11:03:46;102510.64;;;23.42;17.50
72909;BME280;61051;62.624;17.950;2023-05-08T11:06:16;102514.33;;;24.97;15.35
72909;BME280;61051;62.624;17.950;2023-05-08T11:08:48;102511.49;;;25.93;13.40
72909;BME280;61051;62.624;17.950;2023-05-08T11:11:24;102510.43;;;26.43;13.30
72909;BME280;61051;62.624;17.950;2023-05-08T11:13:57;102511.58;;;26.47;13.27
72909;BME280;61051;62.624;17.950;2023-05-08T11:17:32;102507.81;;;26.61;13.36
72909;BME280;61051;62.624;17.950;2023-05-08T11:20:04;102505.50;;;27.01;13.17
72909;BME280;61051;62.624;17.950;2023-05-08T11:22:34;102511.05;;;26.94;14.05
72909;BME280;61051;62.624;17.950;2023-05-08T11:25:06;102509.29;;;26.47;13.17
72909;BME280;61051;62.624;17.950;2023-05-08T11:30:32;102505.78;;;26.47;12.84
72909;BME280;61051;62.624;17.950;2023-05-08T11:33:16;102503.46;;;26.00;13.64
72909;BME280;61051;62.624;17.950;2023-05-08T11:35:48;102508.14;;;26.00;13.93
72909;BME280;61051;62.624;17.950;2023-05-08T11:38:20;102506.60;;;25.78;14.58
72909;BME280;61051;62.624;17.950;2023-05-08T11:40:55;102505.72;;;26.26;14.36
72909;BME280;61051;62.624;17.950;2023-05-08T11:43:26;102499.34;;;26.62;13.49
72909;BME280;61051;62.624;17.950;2023-05-08T11:46:02;102495.47;;;27.27;14.45
72909;BME280;61051;62.624;17.950;2023-05-08T11:48:31;102491.40;;;27.24;13.42
72909;BME280;61051;62.624;17.950;2023-05-08T11:51:01;102489.16;;;27.55;13.61
72909;BME280;61051;62.624;17.950;2023-05-08T11:53:30;102495.78;;;27.17;12.95
72909;BME280;61051;62.624;17.950;2023-05-08T11:56:00;102498.67;;;26.94;13.47
72909;BME280;61051;62.624;17.950;2023-05-08T11:58:29;102483.68;;;27.25;13.79
72909;BME280;61051;62.624;17.950;2023-05-08T12:00:58;102483.62;;;28.02;13.30
72909;BME280;61051;62.624;17.950;2023-05-08T12:03:27;102483.46;;;27.77;13.00
72909;BME280;61051;62.624;17.950;2023-05-08T12:05:56;102481.37;;;28.16;13.17
72909;BME280;61051;62.624;17.950;2023-05-08T12:08:25;102478.09;;;28.28;13.09
72909;BME280;61051;62.624;17.950;2023-05-08T12:10:53;102480.48;;;28.01;14.17
72909;BME280;61051;62.624;17.950;2023-05-08T12:13:23;102478.34;;;28.19;13.08
72909;BME280;61051;62.624;17.950;2023-05-08T12:15:54;102476.04;;;27.71;13.16
72909;BME280;61051;62.624;17.950;2023-05-08T12:18:23;102474.54;;;27.54;13.23
72909;BME280;61051;62.624;17.950;2023-05-08T12:20:54;102469.71;;;27.32;13.82
72909;BME280;61051;62.624;17.950;2023-05-08T12:23:24;102470.14;;;27.89;13.21
72909;BME280;61051;62.624;17.950;2023-05-08T12:25:53;102467.53;;;28.05;12.81
72909;BME280;61051;62.624;17.950;2023-05-08T12:28:23;102471.93;;;28.84;12.20
72909;BME280;61051;62.624;17.950;2023-05-08T12:30:51;102463.97;;;28.15;12.52
72909;BME280;61051;62.624;17.950;2023-05-08T12:33:19;102464.10;;;28.45;11.95
72909;BME280;61051;62.624;17.950;2023-05-08T12:35:48;102459.36;;;28.04;11.78
72909;BME280;61051;62.624;17.950;2023-05-08T12:38:17;102465.82;;;27.79;13.48
72909;BME280;61051;62.624;17.950;2023-05-08T12:40:47;102460.58;;;27.53;13.04
72909;BME280;61051;62.624;17.950;2023-05-08T12:43:16;102458.23;;;27.73;12.94
72909;BME280;61051;62.624;17.950;2023-05-08T12:45:44;102456.51;;;27.69;13.68
72909;BME280;61051;62.624;17.950;2023-05-08T12:48:13;102455.95;;;27.97;13.32
72909;BME280;61051;62.624;17.950;2023-05-08T12:50:44;102464.71;;;28.51;11.86
72909;BME280;61051;62.624;17.950;2023-05-08T12:53:15;102457.64;;;27.07;12.59
72909;BME280;61051;62.624;17.950;2023-05-08T12:55:50;102459.20;;;26.92;11.90
72909;BME280;61051;62.624;17.950;2023-05-08T12:58:29;102462.01;;;26.52;11.75
72909;BME280;61051;62.624;17.950;2023-05-08T13:01:08;102455.95;;;26.46;12.20
72909;BME280;61051;62.624;17.950;2023-05-08T13:03:37;102451.94;;;27.24;11.94
72909;BME280;61051;62.624;17.950;2023-05-08T13:06:06;102448.24;;;27.85;10.98
72909;BME280;61051;62.624;17.950;2023-05-08T13:08:36;102455.81;;;27.74;10.70
72909;BME280;61051;62.624;17.950;2023-05-08T13:11:05;102446.74;;;27.62;10.28
72909;BME280;61051;62.624;17.950;2023-05-08T13:13:35;102446.81;;;27.35;10.37
72909;BME280;61051;62.624;17.950;2023-05-08T13:16:06;102442.75;;;27.85;10.31
72909;BME280;61051;62.624;17.950;2023-05-08T13:18:34;102447.96;;;27.74;10.15